Main page
METAR-TAF:

METAR-TAF

Airports :

Perryton Ochiltree County Airport

Perryton, Texas, United States

latitude: 36-24N, longitude: 100-44W, elevation: 2919 ft

Current weather observation

The report was made 14 minutes ago, at 14:55 UTC
Wind 8 mph from the South
Temperature 68°F
Humidity 68%
Pressure 30.13 in. Hg
Visibility: 10 miles
Clear sky

METAR: KPYX 211455Z AUTO 17007KT 10SM CLR 20/14 A3013 RMK AO2 T01990143

Time: 10:09 (15:09 UTC)


TAF: missing

Weather observations and forecasts of more than 4000 airports (METAR and TAF reports).

The available stations are represented by yellow and red dots on the map.

Hover mouse over dot to see the name of the station.

Then click to see weather observations and forecasts.

To change the map : click on the green buttons with a black cross to zoom in, on the green button with a dash to zoom out, or on the green arrows for adjacent maps.


METAR-TAF: